createdAt,value
2024-03-12T00:03:57.497Z,8.51
2024-03-12T00:09:00.620Z,8.24
2024-03-12T00:14:05.297Z,8.46
2024-03-12T00:19:10.645Z,8.82
2024-03-12T00:24:13.966Z,8.95
2024-03-12T00:29:20.360Z,9.25
2024-03-12T00:34:23.789Z,9.27
2024-03-12T00:39:26.974Z,9.26
2024-03-12T00:44:32.451Z,9.25
2024-03-12T00:49:35.805Z,9.35
2024-03-12T00:54:39.005Z,9.26
2024-03-12T00:59:43.583Z,9.01
2024-03-12T01:04:46.933Z,8.95
2024-03-12T01:09:50.102Z,9.24
2024-03-12T01:14:54.636Z,9.45
2024-03-12T01:19:59.306Z,9.53
2024-03-12T01:25:02.694Z,9.40
2024-03-12T01:30:08.809Z,9.34
2024-03-12T01:35:13.863Z,9.40
2024-03-12T01:40:24.286Z,9.35
2024-03-12T01:45:29.155Z,9.44
2024-03-12T01:50:32.697Z,9.50
2024-03-12T01:55:36.100Z,9.55
2024-03-12T02:00:40.603Z,9.65
2024-03-12T02:05:44.023Z,9.66
2024-03-12T02:10:47.870Z,9.55
2024-03-12T02:15:52.419Z,9.36
2024-03-12T02:20:55.601Z,9.40
2024-03-12T02:26:00.140Z,9.54
2024-03-12T02:31:03.449Z,9.66
2024-03-12T02:36:07.632Z,9.72
2024-03-12T02:41:12.429Z,9.50
2024-03-12T02:46:15.973Z,9.64
2024-03-12T02:51:19.183Z,9.53
2024-03-12T02:56:23.678Z,9.70
2024-03-12T03:01:27.098Z,9.78
2024-03-12T03:06:30.799Z,9.91
2024-03-12T03:11:35.459Z,9.90
2024-03-12T03:16:38.742Z,9.98
2024-03-12T03:21:41.924Z,10.02
2024-03-12T03:26:46.480Z,10.07
2024-03-12T03:31:50.925Z,10.18
2024-03-12T03:36:57.017Z,10.11
2024-03-12T03:42:03.376Z,10.03
2024-03-12T03:47:06.829Z,10.12
2024-03-12T03:52:10.050Z,10.21
2024-03-12T03:57:14.729Z,10.25
2024-03-12T04:02:19.637Z,9.94
2024-03-12T04:07:22.859Z,10.05
2024-03-12T04:12:27.473Z,9.97
2024-03-12T04:17:30.655Z,9.86
2024-03-12T04:22:33.896Z,10.02
2024-03-12T04:27:38.996Z,10.12
2024-03-12T04:32:42.646Z,10.16
2024-03-12T04:37:45.818Z,10.20
2024-03-12T04:42:50.407Z,10.16
2024-03-12T04:47:53.745Z,10.03
2024-03-12T04:52:56.893Z,10.04
2024-03-12T04:58:01.689Z,10.03
2024-03-12T05:03:05.805Z,10.00
2024-03-12T05:08:09.564Z,10.13
2024-03-12T05:13:14.958Z,9.95
2024-03-12T05:18:18.215Z,9.90
2024-03-12T05:23:21.438Z,9.96
2024-03-12T05:28:26.047Z,10.07
2024-03-12T05:33:31.339Z,9.92
2024-03-12T05:38:35.339Z,9.81
2024-03-12T05:43:57.295Z,10.05
2024-03-12T05:49:00.561Z,10.11
2024-03-12T05:54:03.784Z,10.15
2024-03-12T05:59:08.726Z,10.20
2024-03-12T06:04:12.235Z,10.27
2024-03-12T06:09:16.256Z,10.23
2024-03-12T06:14:20.883Z,10.18
2024-03-12T06:19:24.205Z,10.04
2024-03-12T06:24:27.495Z,9.96
2024-03-12T06:29:32.923Z,9.79
2024-03-12T06:34:36.246Z,9.77
2024-03-12T06:44:47.306Z,10.08
2024-03-12T06:49:50.579Z,10.08
2024-03-12T06:54:53.800Z,10.06
2024-03-12T06:59:58.686Z,10.10
2024-03-12T07:05:04.199Z,10.23
2024-03-12T07:10:12.837Z,10.31
2024-03-12T07:15:19.533Z,10.45
2024-03-12T07:20:23.102Z,10.40
2024-03-12T07:25:27.063Z,10.40
2024-03-12T07:30:31.738Z,10.47
2024-03-12T07:35:35.773Z,10.40
2024-03-12T07:40:40.589Z,10.53
2024-03-12T07:45:49.464Z,10.67
2024-03-12T07:50:52.750Z,10.58
2024-03-12T07:55:57.852Z,10.35
2024-03-12T08:01:02.697Z,10.47
2024-03-12T08:06:06.340Z,10.80
2024-03-12T08:11:09.735Z,10.83
2024-03-12T08:16:14.505Z,11.01
2024-03-12T08:21:18.704Z,11.39
2024-03-12T08:26:22.563Z,11.41
2024-03-12T08:31:33.309Z,11.36
2024-03-12T08:36:41.657Z,11.45
2024-03-12T08:41:45.370Z,11.57
2024-03-12T08:46:51.067Z,11.52
2024-03-12T08:51:54.361Z,11.83
2024-03-12T08:56:57.794Z,12.06
2024-03-12T09:02:04.180Z,12.26
2024-03-12T09:07:08.419Z,12.35
2024-03-12T09:12:11.781Z,12.67
2024-03-12T09:17:16.943Z,13.00
2024-03-12T09:22:20.202Z,12.97
2024-03-12T09:27:25.840Z,12.98
2024-03-12T09:32:30.521Z,13.35
2024-03-12T09:37:37.264Z,13.77
2024-03-12T09:42:40.941Z,13.98
2024-03-12T09:47:46.109Z,14.02
2024-03-12T09:52:51.000Z,14.13
2024-03-12T09:57:56.159Z,14.25
2024-03-12T10:03:01.153Z,14.37
2024-03-12T10:08:14.334Z,14.32
2024-03-12T10:13:19.140Z,14.56
2024-03-12T10:18:25.547Z,14.70
2024-03-12T10:23:30.298Z,14.71
2024-03-12T10:28:33.721Z,14.92
2024-03-12T10:33:39.320Z,14.94
2024-03-12T10:38:44.178Z,14.83
2024-03-12T10:43:48.638Z,14.88
2024-03-12T10:48:53.196Z,15.05
2024-03-12T10:53:56.429Z,15.11
2024-03-12T10:58:59.896Z,15.07
2024-03-12T11:04:06.858Z,14.97
2024-03-12T11:09:13.078Z,15.09
2024-03-12T11:14:17.358Z,15.08
2024-03-12T11:19:24.135Z,15.05
2024-03-12T11:24:28.388Z,15.02
2024-03-12T11:30:15.536Z,15.01
2024-03-12T11:35:33.360Z,14.96
2024-03-12T11:40:38.708Z,14.86
2024-03-12T11:45:44.003Z,14.83
2024-03-12T11:50:56.001Z,14.84
2024-03-12T11:56:02.880Z,14.96
2024-03-12T12:01:08.314Z,15.12
2024-03-12T12:06:13.052Z,15.07
2024-03-12T12:11:17.688Z,15.15
2024-03-12T12:16:21.348Z,15.22
2024-03-12T12:21:25.943Z,15.22
2024-03-12T12:26:31.246Z,15.35
2024-03-12T12:31:37.474Z,15.55
2024-03-12T12:36:45.476Z,15.61
2024-03-12T12:41:50.144Z,15.66
2024-03-12T12:46:55.998Z,15.63
2024-03-12T12:52:02.071Z,15.63
2024-03-12T12:57:05.846Z,15.57
2024-03-12T13:02:16.497Z,15.38
2024-03-12T13:07:31.309Z,14.83
2024-03-12T13:12:34.734Z,14.41
2024-03-12T13:17:37.924Z,14.51
2024-03-12T13:22:43.460Z,14.42
2024-03-12T13:27:46.896Z,14.52
2024-03-12T13:32:50.369Z,14.73
2024-03-12T13:37:56.125Z,14.76
2024-03-12T13:42:59.272Z,14.97
2024-03-12T13:48:02.446Z,15.00
2024-03-12T13:53:07.026Z,14.78
2024-03-12T13:58:10.244Z,14.74
2024-03-12T14:03:14.847Z,14.50
2024-03-12T14:08:20.966Z,14.77
2024-03-12T14:13:24.209Z,14.98
2024-03-12T14:18:28.175Z,15.04
2024-03-12T14:23:33.000Z,15.03
2024-03-12T14:28:36.133Z,14.99
2024-03-12T14:33:39.364Z,14.68
2024-03-12T14:38:43.901Z,14.32
2024-03-12T14:43:47.044Z,14.07
2024-03-12T14:48:53.541Z,14.10
2024-03-12T14:53:58.206Z,14.21
2024-03-12T14:59:02.324Z,14.23
2024-03-12T15:04:05.633Z,14.24
2024-03-12T15:09:13.834Z,14.29
2024-03-12T15:14:17.154Z,14.34
2024-03-12T15:19:20.658Z,14.30
2024-03-12T15:24:25.600Z,14.20
2024-03-12T15:29:29.498Z,14.28
2024-03-12T15:34:32.670Z,14.34
2024-03-12T15:39:38.639Z,14.35
2024-03-12T15:44:42.584Z,14.55
2024-03-12T15:49:45.799Z,14.55
2024-03-12T15:54:51.313Z,14.57
2024-03-12T15:59:54.488Z,14.53
2024-03-12T16:04:58.699Z,14.57
2024-03-12T16:10:03.394Z,14.57
2024-03-12T16:15:10.605Z,14.55
2024-03-12T16:20:20.423Z,14.53
2024-03-12T16:25:25.122Z,14.40
2024-03-12T16:30:28.328Z,14.33
2024-03-12T16:35:31.471Z,14.25
2024-03-12T16:40:35.958Z,14.24
2024-03-12T16:45:39.302Z,14.20
2024-03-12T16:50:42.540Z,14.18
2024-03-12T16:55:47.828Z,14.13
2024-03-12T17:00:51.786Z,14.06
2024-03-12T17:05:56.112Z,14.03
2024-03-12T17:11:01.217Z,13.99
2024-03-12T17:16:08.178Z,13.96
2024-03-12T17:21:11.926Z,13.90
2024-03-12T17:26:18.372Z,13.85
2024-03-12T17:31:22.524Z,13.78
2024-03-12T17:36:26.983Z,13.76
2024-03-12T17:41:32.104Z,13.73
2024-03-12T17:46:38.617Z,13.69
2024-03-12T17:51:42.388Z,13.56
2024-03-12T17:56:48.228Z,13.51
2024-03-12T18:01:53.193Z,13.50
2024-03-12T18:07:00.963Z,13.47
2024-03-12T18:12:07.342Z,13.44
2024-03-12T18:17:10.485Z,13.40
2024-03-12T18:22:14.661Z,13.35
2024-03-12T18:27:20.110Z,13.26
2024-03-12T18:32:23.542Z,13.19
2024-03-12T18:37:26.753Z,13.20
2024-03-12T18:42:31.710Z,13.09
2024-03-12T18:47:35.863Z,13.05
2024-03-12T18:52:39.974Z,13.09
2024-03-12T18:57:45.409Z,13.03
2024-03-12T19:02:49.964Z,13.04
2024-03-12T19:07:55.857Z,13.09
2024-03-12T19:13:01.367Z,12.96
2024-03-12T19:18:16.963Z,12.93
2024-03-12T19:23:20.687Z,12.88
2024-03-12T19:28:26.221Z,12.85
2024-03-12T19:33:32.682Z,12.77
2024-03-12T19:38:36.272Z,12.65
2024-03-12T19:43:41.576Z,12.65
2024-03-12T19:48:45.756Z,12.62
2024-03-12T19:53:51.334Z,12.58
2024-03-12T19:58:56.891Z,12.52
2024-03-12T20:04:00.505Z,12.46
2024-03-12T20:09:12.506Z,12.44
2024-03-12T20:14:19.088Z,12.42
2024-03-12T20:19:22.914Z,12.37
2024-03-12T20:24:26.065Z,12.33
2024-03-12T20:29:37.556Z,12.27
2024-03-12T20:34:42.483Z,12.25
2024-03-12T20:39:45.772Z,12.28
2024-03-12T20:44:50.845Z,12.26
2024-03-12T20:49:54.064Z,12.26
2024-03-12T20:54:58.884Z,12.22
2024-03-12T21:00:06.441Z,12.24
2024-03-12T21:05:09.704Z,12.27
2024-03-12T21:10:13.455Z,12.30
2024-03-12T21:15:19.439Z,12.33
2024-03-12T21:20:25.971Z,12.26
2024-03-12T21:25:29.290Z,12.24
2024-03-12T21:30:35.849Z,12.27
2024-03-12T21:35:39.998Z,12.30
2024-03-12T21:40:43.929Z,12.18
2024-03-12T21:45:48.812Z,12.07
2024-03-12T21:50:54.192Z,12.05
2024-03-12T21:55:58.015Z,12.00
2024-03-12T22:01:02.712Z,12.02
2024-03-12T22:06:07.976Z,12.04
2024-03-12T22:11:11.153Z,12.01
2024-03-12T22:16:17.027Z,11.83
2024-03-12T22:21:26.061Z,11.81
2024-03-12T22:26:30.179Z,11.71
2024-03-12T22:31:34.682Z,11.76
2024-03-12T22:36:37.867Z,11.77
2024-03-12T22:41:48.901Z,11.88
2024-03-12T22:46:54.591Z,11.83
2024-03-12T22:51:58.734Z,11.83
2024-03-12T22:57:02.337Z,11.77
2024-03-12T23:02:10.612Z,11.70
2024-03-12T23:07:14.687Z,11.59
2024-03-12T23:12:18.288Z,11.56
2024-03-12T23:17:23.659Z,11.52
2024-03-12T23:22:28.520Z,11.43
2024-03-12T23:27:32.726Z,11.46
2024-03-12T23:32:37.479Z,11.55
2024-03-12T23:37:42.667Z,11.69
2024-03-12T23:42:47.009Z,11.81
2024-03-12T23:47:52.591Z,11.89
2024-03-12T23:52:55.976Z,11.90
2024-03-12T23:57:59.812Z,11.92
